Time;durP1;ratioP1;P1;durP2;ratioP2;P2;SDS_P1;SDS_P2;PMS_P1;PMS_P2;Temp;Humidity;BMP_temperature;BMP_pressure;BME280_temperature;BME280_humidity;BME280_pressure;Samples;Min_cycle;Max_cycle;Signal;HPM_P1;HPM_P2
2023/01/15 00:01:19;;;;;;;18.80;9.30;;;;;;;4.56;75.37;99889.30;108239;1261;37136;-73
2023/01/15 00:03:50;;;;;;;17.90;10.20;;;;;;;4.57;75.49;99877.52;108432;1278;37457;-73
2023/01/15 00:06:22;;;;;;;16.30;9.80;;;;;;;4.60;75.47;99868.14;108411;1257;38320;-72
2023/01/15 00:08:54;;;;;;;14.60;9.50;;;;;;;4.62;75.33;99870.15;108432;1269;38211;-73
2023/01/15 00:11:25;;;;;;;15.90;9.60;;;;;;;4.64;75.25;99860.79;108425;1261;38937;-72
2023/01/15 00:13:57;;;;;;;17.20;9.50;;;;;;;4.65;74.98;99846.62;108393;1278;37168;-73
2023/01/15 00:16:29;;;;;;;17.60;10.40;;;;;;;4.64;75.02;99846.13;108403;1278;36148;-72
2023/01/15 00:19:03;;;;;;;17.00;8.80;;;;;;;4.63;75.09;99844.76;108393;1278;37118;-72
2023/01/15 00:21:33;;;;;;;14.30;8.60;;;;;;;4.62;74.84;99837.18;108400;1279;37050;-73
2023/01/15 00:29:49;;;;;;;15.30;9.00;;;;;;;4.65;74.54;99830.88;108408;1260;37467;-72
2023/01/15 00:32:19;;;;;;;18.10;9.70;;;;;;;4.65;74.43;99828.64;108390;1262;36522;-73
2023/01/15 00:34:50;;;;;;;17.40;9.80;;;;;;;4.64;73.98;99824.35;108392;1256;37234;-72
2023/01/15 00:37:21;;;;;;;15.40;9.30;;;;;;;4.63;74.13;99813.66;108391;1278;37106;-72
2023/01/15 00:39:52;;;;;;;15.80;9.40;;;;;;;4.62;73.69;99811.09;108429;1267;36926;-72
2023/01/15 00:42:27;;;;;;;15.00;9.50;;;;;;;4.63;73.79;99810.89;108404;1257;37100;-72
2023/01/15 00:45:04;;;;;;;14.10;9.50;;;;;;;4.63;73.42;99810.02;108362;1278;38356;-74
2023/01/15 00:47:35;;;;;;;16.50;9.60;;;;;;;4.64;73.55;99800.16;108399;1266;39308;-72
2023/01/15 00:50:13;;;;;;;14.20;9.60;;;;;;;4.64;73.64;99798.62;108418;1256;36568;-72
2023/01/15 00:52:45;;;;;;;17.80;9.90;;;;;;;4.62;73.90;99792.08;108416;1278;37913;-72
2023/01/15 00:55:16;;;;;;;16.20;9.40;;;;;;;4.60;73.88;99796.95;108416;1260;37007;-72
2023/01/15 00:57:48;;;;;;;16.40;10.20;;;;;;;4.59;73.62;99786.63;108216;1270;37209;-72
2023/01/15 01:00:21;;;;;;;18.10;10.60;;;;;;;4.58;73.50;99779.05;108398;1260;37079;-72
2023/01/15 01:02:52;;;;;;;14.20;10.10;;;;;;;4.57;74.02;99774.76;107677;1272;909646;-70
2023/01/15 01:05:24;;;;;;;15.40;9.50;;;;;;;4.55;73.66;99770.64;108417;1265;37208;-71
2023/01/15 01:07:58;;;;;;;15.10;9.70;;;;;;;4.53;73.62;99767.25;108225;1259;37345;-71
2023/01/15 01:10:29;;;;;;;16.90;10.30;;;;;;;4.50;73.61;99762.31;108403;1262;37101;-72
2023/01/15 01:13:00;;;;;;;15.00;9.20;;;;;;;4.47;73.71;99762.02;108392;1269;36957;-73
2023/01/15 01:15:33;;;;;;;14.30;9.80;;;;;;;4.46;73.71;99758.61;108404;1276;36949;-72
2023/01/15 01:18:04;;;;;;;15.90;10.10;;;;;;;4.46;73.97;99777.60;108404;1277;37148;-72
2023/01/15 01:20:38;;;;;;;13.70;10.00;;;;;;;4.45;74.06;99770.73;108427;1278;37172;-72
2023/01/15 01:23:09;;;;;;;13.30;9.40;;;;;;;4.44;74.03;99768.50;108387;1278;37202;-71
2023/01/15 01:25:42;;;;;;;15.70;9.60;;;;;;;4.40;73.82;99772.20;108456;1256;37064;-72
2023/01/15 01:28:13;;;;;;;15.30;9.00;;;;;;;4.38;73.50;99773.79;108472;1269;36091;-72
2023/01/15 01:30:44;;;;;;;15.40;9.20;;;;;;;4.39;73.60;99763.95;108452;1269;37166;-72
2023/01/15 01:33:17;;;;;;;14.50;9.20;;;;;;;4.40;73.74;99758.73;108415;1257;37268;-72
2023/01/15 01:35:50;;;;;;;12.60;8.60;;;;;;;4.40;73.71;99760.80;108394;1268;36968;-72
2023/01/15 01:38:22;;;;;;;15.50;9.90;;;;;;;4.39;73.94;99758.58;108387;1262;37557;-72
2023/01/15 01:40:54;;;;;;;13.00;8.60;;;;;;;4.37;73.86;99751.38;108428;1261;37105;-72
2023/01/15 01:43:27;;;;;;;13.80;8.70;;;;;;;4.34;73.90;99741.41;108397;1267;37093;-71
2023/01/15 01:45:58;;;;;;;13.30;8.40;;;;;;;4.31;73.84;99732.00;108425;1256;36985;-71
2023/01/15 01:48:32;;;;;;;11.40;8.00;;;;;;;4.30;74.00;99728.23;108292;1260;172849;-71
2023/01/15 01:51:05;;;;;;;11.30;8.20;;;;;;;4.28;73.97;99720.33;108403;1273;37482;-71
2023/01/15 01:53:36;;;;;;;12.70;8.20;;;;;;;4.26;74.00;99707.08;108408;1261;38160;-72
2023/01/15 01:56:10;;;;;;;13.10;9.10;;;;;;;4.24;74.13;99693.33;108395;1262;37134;-72
2023/01/15 01:58:41;;;;;;;10.80;7.50;;;;;;;4.18;73.98;99679.98;108289;1267;174992;-72
2023/01/15 02:01:12;;;;;;;11.70;7.60;;;;;;;4.13;73.97;99680.63;108186;1268;38698;-71
2023/01/15 02:03:43;;;;;;;11.30;7.00;;;;;;;4.09;73.94;99669.15;108372;1260;37023;-72
2023/01/15 02:06:14;;;;;;;10.50;7.80;;;;;;;4.05;73.96;99675.09;108423;1264;36638;-72
2023/01/15 02:08:45;;;;;;;11.20;7.50;;;;;;;4.03;74.15;99671.88;108432;1260;37284;-72
2023/01/15 02:11:21;;;;;;;11.30;7.70;;;;;;;4.01;74.07;99673.98;108390;1278;36967;-72
2023/01/15 02:14:00;;;;;;;11.90;7.90;;;;;;;3.98;74.22;99684.77;108412;1258;38305;-72
2023/01/15 02:16:36;;;;;;;10.70;7.50;;;;;;;3.93;74.07;99686.76;108417;1270;37281;-72
2023/01/15 02:19:15;;;;;;;10.50;7.10;;;;;;;3.91;74.36;99680.77;108492;1264;36354;-71
2023/01/15 02:21:52;;;;;;;11.80;7.70;;;;;;;3.92;74.50;99693.34;108691;1259;37018;-72
2023/01/15 02:24:33;;;;;;;11.30;7.00;;;;;;;3.94;74.66;99682.42;108630;1276;36950;-72
2023/01/15 02:27:12;;;;;;;10.60;7.60;;;;;;;3.96;74.61;99687.91;107952;1266;912323;-72
2023/01/15 02:29:58;;;;;;;11.20;7.10;;;;;;;3.98;74.76;99695.27;108608;1276;36510;-73
2023/01/15 02:32:38;;;;;;;10.90;7.40;;;;;;;3.98;74.62;99674.56;108624;1253;37084;-72
2023/01/15 02:35:12;;;;;;;10.90;6.90;;;;;;;3.98;74.26;99679.73;108621;1265;37086;-73
2023/01/15 02:37:46;;;;;;;10.90;7.70;;;;;;;4.00;74.25;99684.03;108626;1259;36033;-72
2023/01/15 02:40:17;;;;;;;11.50;7.00;;;;;;;4.03;74.30;99676.00;108653;1257;37084;-72
2023/01/15 02:42:49;;;;;;;10.20;7.20;;;;;;;4.06;74.09;99667.48;108575;1274;37459;-72
2023/01/15 02:45:25;;;;;;;9.70;7.40;;;;;;;4.08;74.05;99663.30;108437;1276;38588;-71
2023/01/15 02:48:00;;;;;;;9.30;7.20;;;;;;;4.09;74.16;99670.53;108621;1276;37396;-71
2023/01/15 02:50:34;;;;;;;9.30;7.00;;;;;;;4.09;73.79;99656.90;108639;1276;37332;-71
2023/01/15 02:53:10;;;;;;;10.20;7.20;;;;;;;4.09;73.54;99641.89;108614;1266;36991;-72
2023/01/15 02:55:43;;;;;;;10.50;6.50;;;;;;;4.11;73.65;99615.91;108668;1258;37128;-73
2023/01/15 02:58:17;;;;;;;12.10;7.10;;;;;;;4.13;73.29;99603.64;107962;1258;914452;-72
2023/01/15 03:00:52;;;;;;;10.70;7.40;;;;;;;4.12;72.98;99606.25;108636;1276;37053;-72
2023/01/15 03:03:29;;;;;;;8.90;6.40;;;;;;;4.09;72.89;99608.39;108668;1276;37118;-72
2023/01/15 03:06:04;;;;;;;10.30;7.10;;;;;;;4.06;72.86;99608.11;108638;1276;37200;-72
2023/01/15 03:08:35;;;;;;;9.70;7.10;;;;;;;4.04;73.24;99597.29;108632;1276;36004;-71
2023/01/15 03:11:11;;;;;;;10.80;6.70;;;;;;;4.03;72.97;99590.59;108486;1272;37700;-72
2023/01/15 03:13:47;;;;;;;11.10;7.00;;;;;;;4.03;73.05;99581.77;108644;1276;37178;-73
2023/01/15 03:16:33;;;;;;;10.10;6.80;;;;;;;4.04;72.74;99577.96;108626;1276;37049;-72
2023/01/15 03:19:20;;;;;;;9.20;6.40;;;;;;;4.05;73.08;99583.12;108484;1268;37079;-72
2023/01/15 03:21:57;;;;;;;10.40;6.90;;;;;;;4.05;72.91;99591.73;108627;1272;37039;-72
2023/01/15 03:24:32;;;;;;;10.90;7.40;;;;;;;4.06;73.14;99608.45;108683;1276;36822;-73
2023/01/15 03:27:03;;;;;;;8.90;6.90;;;;;;;4.08;72.55;99594.77;108614;1257;37196;-71
2023/01/15 03:29:36;;;;;;;10.80;6.80;;;;;;;4.10;72.40;99603.71;108669;1258;37168;-72
2023/01/15 03:32:07;;;;;;;10.40;7.20;;;;;;;4.13;72.41;99579.45;108590;1269;36945;-73
2023/01/15 03:34:42;;;;;;;10.00;6.70;;;;;;;4.15;72.52;99573.21;108615;1266;38603;-72
2023/01/15 03:37:13;;;;;;;10.10;6.70;;;;;;;4.15;72.28;99561.30;108638;1257;36940;-71
2023/01/15 03:39:43;;;;;;;10.30;7.30;;;;;;;4.14;72.44;99560.46;108382;1276;186696;-71
2023/01/15 03:42:29;;;;;;;10.20;6.70;;;;;;;4.11;72.49;99552.41;108592;1276;37284;-72
2023/01/15 03:45:03;;;;;;;12.20;6.90;;;;;;;4.11;72.46;99561.91;108668;1264;37164;-73
2023/01/15 03:47:44;;;;;;;9.90;7.10;;;;;;;4.12;72.13;99557.40;108628;1266;37367;-73
2023/01/15 03:50:20;;;;;;;10.00;6.90;;;;;;;4.14;72.39;99552.69;108600;1266;37224;-72
2023/01/15 03:53:00;;;;;;;9.60;6.70;;;;;;;4.15;72.26;99557.67;108603;1254;37083;-72
2023/01/15 03:55:38;;;;;;;9.10;6.80;;;;;;;4.18;72.13;99554.49;108499;1276;37279;-72
2023/01/15 03:58:12;;;;;;;11.90;7.50;;;;;;;4.18;71.75;99534.30;108612;1276;37271;-72
2023/01/15 04:00:48;;;;;;;11.10;6.30;;;;;;;4.17;71.74;99521.71;108638;1264;37085;-72
2023/01/15 04:03:22;;;;;;;10.40;7.10;;;;;;;4.17;71.67;99527.92;108492;1268;37047;-74
2023/01/15 04:05:54;;;;;;;10.80;7.20;;;;;;;4.18;71.75;99528.25;108645;1276;37229;-72
2023/01/15 04:08:31;;;;;;;9.20;6.80;;;;;;;4.20;72.08;99530.11;108631;1257;37083;-72
2023/01/15 04:11:03;;;;;;;8.90;6.70;;;;;;;4.20;71.74;99516.64;108643;1276;37365;-72
2023/01/15 04:13:34;;;;;;;10.70;7.20;;;;;;;4.20;71.67;99525.11;108621;1266;37062;-72
2023/01/15 04:16:06;;;;;;;10.50;7.80;;;;;;;4.19;71.82;99514.25;108644;1270;37154;-72
2023/01/15 04:18:37;;;;;;;11.10;7.50;;;;;;;4.18;71.84;99501.33;108664;1259;37570;-72
2023/01/15 04:21:11;;;;;;;10.30;6.30;;;;;;;4.17;71.98;99493.42;108625;1258;37091;-71
2023/01/15 04:23:43;;;;;;;10.30;6.80;;;;;;;4.17;71.88;99487.21;108649;1258;36881;-72
2023/01/15 04:26:18;;;;;;;9.40;6.40;;;;;;;4.16;71.90;99483.77;108612;1266;36978;-72
2023/01/15 04:29:00;;;;;;;10.70;7.10;;;;;;;4.17;71.69;99463.38;108614;1276;37153;-73
2023/01/15 04:31:33;;;;;;;9.80;7.00;;;;;;;4.15;71.77;99457.39;108615;1255;37326;-73
2023/01/15 04:34:07;;;;;;;10.50;6.90;;;;;;;4.12;71.76;99458.16;108624;1257;37060;-73
2023/01/15 04:36:38;;;;;;;10.80;6.60;;;;;;;4.09;72.08;99457.20;108622;1276;37165;-72
2023/01/15 04:39:10;;;;;;;10.40;7.00;;;;;;;4.06;72.08;99452.27;108622;1258;37303;-73
2023/01/15 04:44:33;;;;;;;10.50;5.70;;;;;;;4.02;71.89;99445.47;108654;1276;37279;-72
2023/01/15 04:47:04;;;;;;;10.30;7.00;;;;;;;4.03;71.87;99440.61;108579;1276;37093;-73
2023/01/15 04:49:38;;;;;;;9.20;6.10;;;;;;;4.03;71.69;99434.40;108626;1252;38499;-73
2023/01/15 04:52:11;;;;;;;9.90;6.60;;;;;;;4.01;72.01;99429.63;108616;1268;36494;-72
2023/01/15 04:54:43;;;;;;;7.80;5.60;;;;;;;3.99;72.05;99428.98;108633;1265;36760;-72
2023/01/15 04:57:15;;;;;;;8.40;5.80;;;;;;;3.98;72.16;99434.55;108631;1266;36660;-72
2023/01/15 04:59:49;;;;;;;11.90;5.70;;;;;;;3.98;72.28;99424.35;108651;1259;37059;-72
2023/01/15 05:02:20;;;;;;;7.60;5.70;;;;;;;3.99;71.96;99421.06;108611;1258;36946;-73
2023/01/15 05:04:53;;;;;;;8.80;5.30;;;;;;;3.98;71.80;99418.83;108505;1261;37381;-73
2023/01/15 05:07:24;;;;;;;7.00;5.20;;;;;;;3.99;71.83;99419.67;108594;1266;36365;-73
2023/01/15 05:09:56;;;;;;;9.50;5.70;;;;;;;3.98;71.92;99417.80;108605;1265;37277;-72
2023/01/15 05:12:27;;;;;;;8.70;5.90;;;;;;;3.97;71.81;99413.16;108459;1258;38535;-71
2023/01/15 05:14:58;;;;;;;8.60;5.80;;;;;;;3.97;72.10;99414.17;108608;1269;37256;-72
2023/01/15 05:17:30;;;;;;;6.90;4.90;;;;;;;4.01;71.34;99405.11;108638;1258;37179;-72
2023/01/15 05:20:04;;;;;;;5.60;4.50;;;;;;;4.06;71.53;99410.50;108657;1259;37277;-72
2023/01/15 05:22:38;;;;;;;7.30;4.90;;;;;;;4.09;71.77;99405.94;108617;1266;36202;-72
2023/01/15 05:25:10;;;;;;;6.20;4.50;;;;;;;4.13;71.75;99396.15;108622;1276;38999;-73
2023/01/15 05:27:41;;;;;;;7.30;4.70;;;;;;;4.14;71.58;99407.69;108506;1261;37201;-73
2023/01/15 05:30:14;;;;;;;7.10;4.40;;;;;;;4.16;71.33;99400.91;108635;1258;36979;-71
2023/01/15 05:32:49;;;;;;;5.60;4.00;;;;;;;4.19;71.25;99404.64;108649;1265;37027;-72
2023/01/15 05:35:21;;;;;;;6.20;4.30;;;;;;;4.23;71.15;99403.14;108620;1276;37126;-72
2023/01/15 05:37:53;;;;;;;6.90;4.40;;;;;;;4.28;71.05;99396.27;108642;1276;37017;-72
2023/01/15 05:40:26;;;;;;;6.70;4.10;;;;;;;4.32;71.12;99394.77;108497;1260;37363;-72
2023/01/15 05:43:01;;;;;;;9.50;4.50;;;;;;;4.34;70.56;99401.97;108613;1254;37257;-72
2023/01/15 05:45:35;;;;;;;6.10;4.10;;;;;;;4.36;70.37;99400.18;108653;1276;36137;-72
2023/01/15 05:48:07;;;;;;;5.00;3.70;;;;;;;4.36;70.03;99395.00;108618;1255;37310;-72
2023/01/15 05:50:40;;;;;;;5.30;3.60;;;;;;;4.38;70.43;99394.77;108633;1272;37100;-72
2023/01/15 05:53:11;;;;;;;6.00;4.10;;;;;;;4.41;70.49;99395.04;108641;1255;37318;-72
2023/01/15 05:55:42;;;;;;;5.70;4.00;;;;;;;4.44;70.44;99384.27;108636;1276;37177;-72
2023/01/15 05:58:13;;;;;;;5.40;3.60;;;;;;;4.47;70.58;99377.58;108598;1257;37222;-73
2023/01/15 06:00:44;;;;;;;5.40;3.90;;;;;;;4.49;69.97;99381.69;108636;1257;36982;-71
2023/01/15 06:03:17;;;;;;;6.00;3.40;;;;;;;4.49;69.99;99376.48;108591;1258;36745;-73
2023/01/15 06:05:55;;;;;;;5.40;3.60;;;;;;;4.49;70.29;99375.29;108602;1257;37276;-73
2023/01/15 06:08:26;;;;;;;6.00;3.90;;;;;;;4.48;70.64;99375.83;108617;1253;36134;-72
2023/01/15 06:10:57;;;;;;;5.10;3.40;;;;;;;4.49;71.20;99374.95;108512;1276;174758;-72
2023/01/15 06:13:28;;;;;;;5.60;3.20;;;;;;;4.51;71.28;99369.52;108619;1253;37182;-71
2023/01/15 06:16:00;;;;;;;4.50;3.60;;;;;;;4.53;71.21;99369.48;108660;1257;37487;-72
2023/01/15 06:18:32;;;;;;;4.30;3.10;;;;;;;4.54;71.16;99356.86;108617;1265;37076;-72
2023/01/15 06:21:06;;;;;;;5.10;3.60;;;;;;;4.55;71.76;99358.19;108601;1259;37840;-72
2023/01/15 06:23:37;;;;;;;5.20;3.50;;;;;;;4.53;71.66;99344.60;108675;1261;37107;-71
2023/01/15 06:26:12;;;;;;;3.80;3.10;;;;;;;4.51;72.07;99339.16;108629;1259;37578;-72
2023/01/15 06:28:43;;;;;;;4.00;2.70;;;;;;;4.49;72.48;99334.71;108628;1252;36642;-72
2023/01/15 06:31:16;;;;;;;3.90;2.90;;;;;;;4.49;72.63;99341.96;108638;1262;36534;-71
2023/01/15 06:33:46;;;;;;;4.80;2.60;;;;;;;4.49;73.12;99341.45;108600;1258;37205;-71
2023/01/15 06:36:21;;;;;;;4.60;3.30;;;;;;;4.48;73.33;99345.77;108634;1276;37126;-71
2023/01/15 06:38:51;;;;;;;4.50;2.70;;;;;;;4.47;73.49;99348.94;108600;1254;37116;-71
2023/01/15 06:47:24;;;;;;;4.40;3.10;;;;;;;4.43;74.25;99346.30;108577;1276;37386;-71
2023/01/15 06:49:58;;;;;;;4.90;3.10;;;;;;;4.42;74.44;99333.52;108595;1276;36973;-72
2023/01/15 06:52:32;;;;;;;4.30;2.70;;;;;;;4.41;74.61;99333.90;108620;1276;37509;-71
2023/01/15 06:55:04;;;;;;;4.20;3.00;;;;;;;4.41;74.72;99334.27;108636;1253;36977;-73
2023/01/15 06:57:37;;;;;;;3.50;2.90;;;;;;;4.39;75.07;99333.96;108659;1256;37406;-72
2023/01/15 07:00:15;;;;;;;5.20;2.50;;;;;;;4.38;75.28;99329.31;108621;1272;37074;-73
2023/01/15 07:02:48;;;;;;;4.40;2.70;;;;;;;4.39;75.76;99326.36;108651;1276;36980;-71
2023/01/15 07:05:24;;;;;;;4.10;2.90;;;;;;;4.41;76.23;99317.34;108645;1258;36334;-71
2023/01/15 07:07:59;;;;;;;3.80;2.80;;;;;;;4.41;76.30;99314.40;108620;1257;37146;-72
2023/01/15 07:10:35;;;;;;;5.20;2.40;;;;;;;4.41;76.57;99312.34;108591;1259;37118;-71
2023/01/15 07:13:06;;;;;;;4.20;2.60;;;;;;;4.42;76.70;99311.94;108543;1257;37479;-69
2023/01/15 07:15:39;;;;;;;3.30;2.70;;;;;;;4.43;76.99;99311.58;108629;1257;37094;-73
2023/01/15 07:18:09;;;;;;;4.40;3.00;;;;;;;4.45;77.18;99321.73;108618;1268;36091;-73
2023/01/15 07:20:41;;;;;;;4.00;2.90;;;;;;;4.45;77.13;99322.04;108621;1254;36140;-73
2023/01/15 07:23:12;;;;;;;3.40;2.30;;;;;;;4.47;77.27;99320.61;108602;1268;37573;-73
2023/01/15 07:25:45;;;;;;;3.80;2.70;;;;;;;4.47;77.40;99315.09;108606;1254;37665;-70
2023/01/15 07:28:16;;;;;;;3.80;2.60;;;;;;;4.46;77.30;99305.09;108578;1257;37314;-72
2023/01/15 07:30:48;;;;;;;4.10;2.70;;;;;;;4.49;77.57;99298.98;108626;1255;37474;-72
2023/01/15 07:33:18;;;;;;;3.80;2.80;;;;;;;4.49;77.60;99298.79;108616;1258;37294;-72
2023/01/15 07:35:49;;;;;;;4.20;2.70;;;;;;;4.52;77.61;99299.20;108625;1254;37299;-72
2023/01/15 07:38:22;;;;;;;3.40;2.80;;;;;;;4.53;77.60;99298.32;108589;1256;37304;-72
2023/01/15 07:49:46;;;;;;;3.90;2.60;;;;;;;4.58;77.63;99286.94;108611;1276;36988;-72
2023/01/15 07:52:20;;;;;;;5.10;3.10;;;;;;;4.58;77.79;99285.54;108606;1252;37553;-72
2023/01/15 07:54:54;;;;;;;3.30;2.70;;;;;;;4.60;77.71;99285.84;108623;1276;36976;-73
2023/01/15 07:57:26;;;;;;;3.80;2.50;;;;;;;4.62;77.76;99282.65;108634;1266;37382;-72
2023/01/15 07:59:57;;;;;;;4.60;2.90;;;;;;;4.64;77.77;99281.23;108626;1270;37422;-72
2023/01/15 08:02:31;;;;;;;4.60;3.00;;;;;;;4.67;77.74;99285.95;108604;1253;36163;-72
2023/01/15 08:05:06;;;;;;;5.10;3.00;;;;;;;4.69;77.96;99287.13;108613;1257;36648;-73
2023/01/15 08:07:39;;;;;;;5.70;3.50;;;;;;;4.70;78.36;99287.60;108587;1265;36881;-74
2023/01/15 08:10:13;;;;;;;5.60;2.50;;;;;;;4.72;78.17;99283.73;108613;1258;36755;-71
2023/01/15 08:15:33;;;;;;;;;;;;;;;4.77;78.29;99283.21;108634;1258;36971;-73
2023/01/15 08:18:04;;;;;;;4.90;2.90;;;;;;;4.76;78.40;99280.83;108594;1257;37092;-72
2023/01/15 08:20:38;;;;;;;5.20;3.10;;;;;;;4.79;78.86;99280.27;108635;1276;37368;-73
2023/01/15 08:23:10;;;;;;;5.00;3.00;;;;;;;4.83;78.88;99273.56;108584;1276;36085;-73
2023/01/15 08:25:41;;;;;;;4.60;2.70;;;;;;;4.86;79.04;99270.30;108440;1255;37549;-72
2023/01/15 08:28:13;;;;;;;5.50;2.60;;;;;;;4.91;79.32;99267.89;108584;1276;37084;-73
2023/01/15 08:30:48;;;;;;;4.10;2.50;;;;;;;4.95;79.55;99266.27;108511;1271;37086;-73
2023/01/15 08:33:21;;;;;;;4.10;2.50;;;;;;;4.98;79.84;99259.08;108606;1260;38105;-73
2023/01/15 08:35:56;;;;;;;4.40;2.70;;;;;;;4.99;79.90;99263.16;108631;1276;37006;-72
2023/01/15 08:38:32;;;;;;;3.30;2.40;;;;;;;5.00;80.01;99260.02;108601;1257;37122;-72
2023/01/15 08:41:04;;;;;;;5.30;2.60;;;;;;;5.02;80.15;99255.28;108608;1257;37116;-74
2023/01/15 08:43:34;;;;;;;4.30;2.80;;;;;;;5.05;80.49;99252.94;108599;1276;37059;-74
2023/01/15 08:46:06;;;;;;;3.60;2.80;;;;;;;5.07;80.18;99261.17;108634;1254;37060;-74
2023/01/15 08:48:37;;;;;;;4.00;3.10;;;;;;;5.09;80.53;99254.00;108594;1257;37102;-73
2023/01/15 08:51:09;;;;;;;5.70;2.60;;;;;;;5.10;80.49;99255.89;108611;1254;37070;-72
2023/01/15 08:53:43;;;;;;;3.30;2.60;;;;;;;5.12;80.62;99251.84;108596;1272;37312;-72
2023/01/15 08:56:14;;;;;;;5.60;3.10;;;;;;;5.17;80.60;99255.13;108637;1276;37280;-73
2023/01/15 08:58:46;;;;;;;4.40;2.50;;;;;;;5.21;80.63;99257.61;108590;1257;37543;-72
2023/01/15 09:01:17;;;;;;;4.20;2.70;;;;;;;5.23;80.67;99256.52;108604;1268;37079;-74
2023/01/15 09:03:48;;;;;;;3.50;2.60;;;;;;;5.23;80.77;99254.42;108588;1258;37110;-73
2023/01/15 09:06:21;;;;;;;5.20;3.30;;;;;;;5.24;80.54;99252.31;108615;1254;37204;-73
2023/01/15 09:08:53;;;;;;;4.20;3.00;;;;;;;5.27;80.66;99252.04;108639;1252;36975;-72
2023/01/15 09:11:27;;;;;;;4.60;3.10;;;;;;;5.30;80.90;99253.31;108635;1253;38248;-74
2023/01/15 09:14:03;;;;;;;5.30;2.70;;;;;;;5.31;80.92;99251.02;108631;1276;36108;-73
2023/01/15 09:16:34;;;;;;;3.80;2.70;;;;;;;5.32;81.00;99250.15;108527;1257;172743;-73
2023/01/15 09:19:05;;;;;;;4.00;2.50;;;;;;;5.33;81.13;99245.77;108614;1269;37344;-75
2023/01/15 09:21:36;;;;;;;3.90;2.80;;;;;;;5.33;81.26;99244.20;108655;1257;37644;-72
2023/01/15 09:24:09;;;;;;;4.20;2.90;;;;;;;5.34;81.27;99242.79;108563;1266;37569;-72
2023/01/15 09:26:41;;;;;;;4.40;2.90;;;;;;;5.35;81.50;99243.81;108588;1257;37119;-73
2023/01/15 09:29:12;;;;;;;4.20;2.80;;;;;;;5.35;81.59;99240.85;108630;1265;37086;-73
2023/01/15 09:31:43;;;;;;;5.00;3.30;;;;;;;5.35;81.73;99242.09;108612;1258;37548;-74
2023/01/15 09:34:15;;;;;;;4.70;3.10;;;;;;;5.35;81.69;99236.89;108506;1276;37163;-74
2023/01/15 09:36:50;;;;;;;5.00;2.80;;;;;;;5.35;81.80;99233.09;108556;1261;37165;-73
2023/01/15 09:39:22;;;;;;;4.10;2.80;;;;;;;5.38;81.92;99234.36;108601;1267;37090;-74
2023/01/15 09:42:19;;;;;;;6.80;3.80;;;;;;;5.42;81.97;99236.83;108591;1276;37646;-74
2023/01/15 09:45:12;;;;;;;6.60;3.10;;;;;;;5.44;82.20;99232.77;108565;1255;37314;-71
2023/01/15 09:47:50;;;;;;;6.00;3.40;;;;;;;5.41;82.21;99235.79;108537;1258;36968;-73
2023/01/15 09:50:36;;;;;;;5.70;3.90;;;;;;;5.42;82.48;99231.95;108618;1257;37105;-73
2023/01/15 09:53:23;;;;;;;3.70;2.70;;;;;;;5.44;82.45;99236.39;108621;1258;37004;-71
2023/01/15 09:55:56;;;;;;;9.20;5.20;;;;;;;5.47;82.66;99230.59;108635;1257;37513;-71
2023/01/15 09:58:35;;;;;;;11.30;6.40;;;;;;;5.49;82.72;99227.23;108659;1254;37176;-72
2023/01/15 10:01:13;;;;;;;9.70;6.10;;;;;;;5.49;82.73;99225.66;108738;1276;36977;-72
2023/01/15 10:03:49;;;;;;;12.00;6.60;;;;;;;5.46;82.72;99220.75;108721;1257;37392;-71
2023/01/15 10:06:30;;;;;;;8.10;4.20;;;;;;;5.47;82.82;99216.39;108564;1276;37350;-72
2023/01/15 10:09:16;;;;;;;6.90;4.80;;;;;;;5.49;83.00;99216.31;108786;1257;37272;-72
2023/01/15 10:15:00;;;;;;;6.10;3.30;;;;;;;5.55;82.99;99213.19;108645;1258;37186;-73
2023/01/15 10:17:41;;;;;;;7.80;5.30;;;;;;;5.54;83.05;99204.91;108751;1265;36994;-72
2023/01/15 10:21:02;;;;;;;5.40;4.10;;;;;;;5.55;83.10;99201.05;108760;1276;38459;-74
2023/01/15 10:23:43;;;;;;;5.40;3.80;;;;;;;5.59;83.40;99203.35;108698;1276;37147;-73
2023/01/15 10:26:28;;;;;;;6.00;4.50;;;;;;;5.62;83.31;99204.45;108722;1268;37065;-73
2023/01/15 10:29:12;;;;;;;5.00;3.40;;;;;;;5.66;83.49;99198.05;108725;1276;37196;-72
2023/01/15 10:31:57;;;;;;;5.50;3.80;;;;;;;5.69;83.60;99196.06;108678;1265;172461;-73
2023/01/15 10:35:08;;;;;;;5.60;3.80;;;;;;;5.70;83.61;99190.98;108729;1276;36981;-70
2023/01/15 10:37:44;;;;;;;5.30;3.80;;;;;;;5.70;83.50;99184.22;108665;1257;37457;-71
2023/01/15 10:40:30;;;;;;;6.70;4.90;;;;;;;5.72;83.53;99184.17;108724;1257;37196;-72
2023/01/15 10:43:10;;;;;;;5.00;3.80;;;;;;;5.74;83.23;99180.48;108622;1252;36926;-73
2023/01/15 10:45:45;;;;;;;6.50;4.50;;;;;;;5.75;83.27;99171.94;108628;1258;37012;-69
2023/01/15 10:48:25;;;;;;;8.40;5.10;;;;;;;5.75;83.37;99168.48;108634;1266;37008;-71
2023/01/15 10:51:00;;;;;;;9.80;5.10;;;;;;;5.75;83.24;99166.75;108646;1253;37188;-73
2023/01/15 10:53:35;;;;;;;4.40;3.40;;;;;;;5.76;83.35;99167.23;108632;1259;36415;-72
2023/01/15 10:56:12;;;;;;;5.30;4.00;;;;;;;5.78;83.67;99165.29;108640;1265;37033;-72
2023/01/15 10:58:46;;;;;;;7.90;5.50;;;;;;;5.81;83.56;99163.77;108635;1259;37404;-72
2023/01/15 11:01:24;;;;;;;14.00;8.30;;;;;;;5.83;83.46;99165.44;108692;1253;37035;-73
2023/01/15 11:03:56;;;;;;;23.30;12.20;;;;;;;5.84;83.50;99165.56;108688;1254;36306;-72
2023/01/15 11:06:33;;;;;;;22.70;14.10;;;;;;;5.84;83.50;99161.56;108672;1276;37706;-72
2023/01/15 11:09:18;;;;;;;9.90;6.20;;;;;;;5.84;83.60;99161.39;108636;1253;37101;-73
2023/01/15 11:20:33;;;;;;;10.70;7.40;;;;;;;5.95;83.61;99149.56;108499;1260;38467;-70
2023/01/15 11:23:14;;;;;;;10.70;7.00;;;;;;;5.93;83.56;99148.93;108608;1253;37042;-73
2023/01/15 11:25:51;;;;;;;14.50;8.20;;;;;;;5.94;83.37;99148.73;108695;1253;36190;-73
2023/01/15 11:28:42;;;;;;;20.30;12.00;;;;;;;5.93;83.10;99150.49;108652;1255;36154;-73
2023/01/15 11:31:16;;;;;;;12.10;7.00;;;;;;;5.95;83.14;99150.27;108698;1270;37067;-74
2023/01/15 11:34:04;;;;;;;8.70;6.10;;;;;;;5.97;83.16;99146.75;108696;1276;36476;-74
2023/01/15 11:36:45;;;;;;;9.40;5.10;;;;;;;5.98;83.15;99138.05;108747;1256;36420;-73
2023/01/15 11:39:27;;;;;;;17.80;11.20;;;;;;;5.99;82.93;99140.97;108679;1276;36176;-72
2023/01/15 11:50:55;;;;;;;5.70;4.20;;;;;;;6.02;83.03;99133.55;108516;1265;174587;-72
2023/01/15 11:53:28;;;;;;;7.80;4.70;;;;;;;6.01;83.07;99132.04;108628;1253;37279;-74
2023/01/15 11:56:03;;;;;;;5.60;4.00;;;;;;;6.02;82.82;99125.62;108510;1259;37704;-73
2023/01/15 11:58:39;;;;;;;5.60;3.40;;;;;;;6.03;82.81;99127.14;108625;1276;37226;-73
2023/01/15 12:01:12;;;;;;;6.50;3.10;;;;;;;6.04;82.81;99125.15;108588;1276;37498;-73
2023/01/15 12:03:44;;;;;;;4.40;3.40;;;;;;;6.05;82.71;99118.73;108619;1257;38496;-72
2023/01/15 12:06:16;;;;;;;7.40;4.60;;;;;;;6.08;82.65;99121.92;108619;1276;36518;-72
2023/01/15 12:08:50;;;;;;;5.20;3.40;;;;;;;6.09;82.47;99120.48;108625;1276;37121;-73
2023/01/15 12:11:46;;;;;;;5.00;3.30;;;;;;;6.08;82.29;99119.81;108636;1265;36973;-72
2023/01/15 12:15:13;;;;;;;4.10;2.80;;;;;;;6.06;81.88;99119.72;108618;1258;37163;-72
2023/01/15 12:18:47;;;;;;;6.10;4.20;;;;;;;6.08;82.04;99122.94;108270;1264;36391;-73
2023/01/15 12:21:59;;;;;;;6.80;4.00;;;;;;;6.10;81.79;99116.27;108284;1276;174866;-73
2023/01/15 12:24:57;;;;;;;5.90;4.00;;;;;;;6.10;81.68;99116.09;108476;1276;37322;-73
2023/01/15 12:27:51;;;;;;;5.70;3.70;;;;;;;6.10;81.42;99116.13;108426;1257;36574;-73
2023/01/15 12:30:30;;;;;;;4.90;3.30;;;;;;;6.10;81.50;99114.52;108640;1254;37265;-73
2023/01/15 12:33:11;;;;;;;4.90;3.50;;;;;;;6.14;81.65;99119.91;108635;1257;37280;-74
2023/01/15 12:35:44;;;;;;;6.10;4.10;;;;;;;6.20;81.62;99119.83;108649;1257;36278;-73
2023/01/15 12:38:20;;;;;;;6.40;4.20;;;;;;;6.25;81.37;99121.41;108657;1276;37567;-73
2023/01/15 12:41:01;;;;;;;6.50;3.90;;;;;;;6.27;80.60;99119.92;108653;1276;38353;-73
2023/01/15 12:46:27;;;;;;;6.00;3.50;;;;;;;6.28;79.89;99114.18;108625;1276;38317;-73
2023/01/15 12:49:04;;;;;;;6.10;3.50;;;;;;;6.27;79.92;99118.18;108606;1276;37289;-71
2023/01/15 12:51:40;;;;;;;6.70;3.60;;;;;;;6.29;80.12;99125.05;108634;1252;36711;-74
2023/01/15 12:54:14;;;;;;;4.80;3.90;;;;;;;6.30;79.92;99125.52;108630;1257;37191;-74
2023/01/15 12:56:53;;;;;;;5.80;3.80;;;;;;;6.31;79.73;99127.38;108635;1257;36118;-73